sensor_id;sensor_type;location;lat;lon;timestamp;P1;durP1;ratioP1;P2;durP2;ratioP2
63653;SDS011;49809;47.418;19.080;2022-07-29T00:01:52;2.75;;;2.33;;
63653;SDS011;49809;47.418;19.080;2022-07-29T00:04:55;2.17;;;1.90;;
63653;SDS011;49809;47.418;19.080;2022-07-29T00:08:02;2.30;;;1.95;;
63653;SDS011;49809;47.418;19.080;2022-07-29T00:11:12;3.12;;;2.22;;
63653;SDS011;49809;47.418;19.080;2022-07-29T00:14:14;2.12;;;1.92;;
63653;SDS011;49809;47.418;19.080;2022-07-29T00:17:25;2.58;;;2.03;;
63653;SDS011;49809;47.418;19.080;2022-07-29T00:23:42;3.22;;;2.10;;
63653;SDS011;49809;47.418;19.080;2022-07-29T00:26:45;2.97;;;2.17;;
63653;SDS011;49809;47.418;19.080;2022-07-29T00:29:48;2.15;;;1.67;;
63653;SDS011;49809;47.418;19.080;2022-07-29T00:32:53;1.98;;;1.77;;
63653;SDS011;49809;47.418;19.080;2022-07-29T00:35:56;2.35;;;1.90;;
63653;SDS011;49809;47.418;19.080;2022-07-29T00:39:02;1.98;;;1.77;;
63653;SDS011;49809;47.418;19.080;2022-07-29T00:42:05;2.75;;;1.80;;
63653;SDS011;49809;47.418;19.080;2022-07-29T00:45:11;2.40;;;2.00;;
63653;SDS011;49809;47.418;19.080;2022-07-29T00:48:17;2.62;;;2.03;;
63653;SDS011;49809;47.418;19.080;2022-07-29T00:51:21;2.83;;;1.95;;
63653;SDS011;49809;47.418;19.080;2022-07-29T00:54:26;2.30;;;1.80;;
63653;SDS011;49809;47.418;19.080;2022-07-29T00:57:29;3.08;;;1.80;;
63653;SDS011;49809;47.418;19.080;2022-07-29T01:00:37;3.40;;;2.83;;
63653;SDS011;49809;47.418;19.080;2022-07-29T01:03:40;2.12;;;1.90;;
63653;SDS011;49809;47.418;19.080;2022-07-29T01:06:42;2.25;;;1.87;;
63653;SDS011;49809;47.418;19.080;2022-07-29T01:09:46;2.35;;;1.90;;
63653;SDS011;49809;47.418;19.080;2022-07-29T01:16:04;2.15;;;1.87;;
63653;SDS011;49809;47.418;19.080;2022-07-29T01:26:17;1.98;;;1.77;;
63653;SDS011;49809;47.418;19.080;2022-07-29T01:29:49;2.78;;;1.80;;
63653;SDS011;49809;47.418;19.080;2022-07-29T01:33:03;2.40;;;1.90;;
63653;SDS011;49809;47.418;19.080;2022-07-29T01:36:11;2.35;;;1.90;;
63653;SDS011;49809;47.418;19.080;2022-07-29T01:39:32;3.03;;;1.95;;
63653;SDS011;49809;47.418;19.080;2022-07-29T01:42:41;4.12;;;2.03;;
63653;SDS011;49809;47.418;19.080;2022-07-29T01:45:47;5.25;;;2.03;;
63653;SDS011;49809;47.418;19.080;2022-07-29T01:49:06;4.18;;;2.30;;
63653;SDS011;49809;47.418;19.080;2022-07-29T01:52:20;3.47;;;2.08;;
63653;SDS011;49809;47.418;19.080;2022-07-29T01:55:36;3.37;;;2.25;;
63653;SDS011;49809;47.418;19.080;2022-07-29T01:58:42;2.28;;;1.83;;
63653;SDS011;49809;47.418;19.080;2022-07-29T02:01:53;2.25;;;2.05;;
63653;SDS011;49809;47.418;19.080;2022-07-29T02:05:02;3.25;;;2.20;;
63653;SDS011;49809;47.418;19.080;2022-07-29T02:08:08;2.83;;;2.28;;
63653;SDS011;49809;47.418;19.080;2022-07-29T02:11:15;4.37;;;2.50;;
63653;SDS011;49809;47.418;19.080;2022-07-29T02:14:22;4.10;;;2.12;;
63653;SDS011;49809;47.418;19.080;2022-07-29T02:17:27;4.90;;;2.20;;
63653;SDS011;49809;47.418;19.080;2022-07-29T02:20:48;2.53;;;2.10;;
63653;SDS011;49809;47.418;19.080;2022-07-29T02:23:52;3.67;;;2.40;;
63653;SDS011;49809;47.418;19.080;2022-07-29T02:26:59;3.28;;;2.17;;
63653;SDS011;49809;47.418;19.080;2022-07-29T02:30:28;3.15;;;2.22;;
63653;SDS011;49809;47.418;19.080;2022-07-29T02:33:52;3.97;;;2.08;;
63653;SDS011;49809;47.418;19.080;2022-07-29T02:37:10;2.67;;;2.25;;
63653;SDS011;49809;47.418;19.080;2022-07-29T02:40:14;3.22;;;2.37;;
63653;SDS011;49809;47.418;19.080;2022-07-29T02:43:18;3.20;;;2.30;;
63653;SDS011;49809;47.418;19.080;2022-07-29T02:46:27;3.30;;;2.22;;
63653;SDS011;49809;47.418;19.080;2022-07-29T02:49:38;2.72;;;2.15;;
63653;SDS011;49809;47.418;19.080;2022-07-29T02:53:13;2.87;;;2.20;;
63653;SDS011;49809;47.418;19.080;2022-07-29T02:56:23;3.67;;;2.20;;
63653;SDS011;49809;47.418;19.080;2022-07-29T02:59:30;2.97;;;2.42;;
63653;SDS011;49809;47.418;19.080;2022-07-29T03:02:49;3.83;;;2.50;;
63653;SDS011;49809;47.418;19.080;2022-07-29T03:06:14;3.47;;;2.50;;
63653;SDS011;49809;47.418;19.080;2022-07-29T03:09:40;3.42;;;2.45;;
63653;SDS011;49809;47.418;19.080;2022-07-29T03:15:51;2.95;;;2.40;;
63653;SDS011;49809;47.418;19.080;2022-07-29T03:18:54;2.50;;;2.22;;
63653;SDS011;49809;47.418;19.080;2022-07-29T03:22:01;3.83;;;2.40;;
63653;SDS011;49809;47.418;19.080;2022-07-29T03:25:08;2.92;;;2.12;;
63653;SDS011;49809;47.418;19.080;2022-07-29T03:28:14;4.20;;;2.53;;
63653;SDS011;49809;47.418;19.080;2022-07-29T03:31:17;3.45;;;2.67;;
63653;SDS011;49809;47.418;19.080;2022-07-29T03:34:20;3.15;;;2.50;;
63653;SDS011;49809;47.418;19.080;2022-07-29T03:37:24;4.57;;;2.62;;
63653;SDS011;49809;47.418;19.080;2022-07-29T03:40:32;3.80;;;2.67;;
63653;SDS011;49809;47.418;19.080;2022-07-29T03:43:38;3.85;;;2.70;;
63653;SDS011;49809;47.418;19.080;2022-07-29T03:46:51;3.67;;;2.50;;
63653;SDS011;49809;47.418;19.080;2022-07-29T03:49:59;3.17;;;2.40;;
63653;SDS011;49809;47.418;19.080;2022-07-29T03:53:13;4.23;;;2.47;;
63653;SDS011;49809;47.418;19.080;2022-07-29T03:56:16;3.92;;;2.20;;
63653;SDS011;49809;47.418;19.080;2022-07-29T03:59:24;2.83;;;2.00;;
63653;SDS011;49809;47.418;19.080;2022-07-29T04:02:27;4.65;;;2.05;;
63653;SDS011;49809;47.418;19.080;2022-07-29T04:05:32;3.75;;;2.20;;
63653;SDS011;49809;47.418;19.080;2022-07-29T04:08:38;2.75;;;2.20;;
63653;SDS011;49809;47.418;19.080;2022-07-29T04:11:43;2.50;;;2.05;;
63653;SDS011;49809;47.418;19.080;2022-07-29T04:15:05;2.67;;;2.17;;
63653;SDS011;49809;47.418;19.080;2022-07-29T04:18:09;6.57;;;2.40;;
63653;SDS011;49809;47.418;19.080;2022-07-29T04:21:16;2.37;;;2.12;;
63653;SDS011;49809;47.418;19.080;2022-07-29T04:24:19;3.12;;;2.47;;
63653;SDS011;49809;47.418;19.080;2022-07-29T04:27:31;3.40;;;2.35;;
63653;SDS011;49809;47.418;19.080;2022-07-29T04:30:34;5.53;;;2.70;;
63653;SDS011;49809;47.418;19.080;2022-07-29T04:33:46;5.07;;;2.37;;
63653;SDS011;49809;47.418;19.080;2022-07-29T04:36:49;3.97;;;2.50;;
63653;SDS011;49809;47.418;19.080;2022-07-29T04:39:53;3.62;;;2.58;;
63653;SDS011;49809;47.418;19.080;2022-07-29T04:42:57;4.18;;;2.50;;
63653;SDS011;49809;47.418;19.080;2022-07-29T04:49:11;4.03;;;2.25;;
63653;SDS011;49809;47.418;19.080;2022-07-29T04:52:14;7.18;;;2.53;;
63653;SDS011;49809;47.418;19.080;2022-07-29T04:55:17;3.33;;;2.30;;
63653;SDS011;49809;47.418;19.080;2022-07-29T04:58:22;4.43;;;2.83;;
63653;SDS011;49809;47.418;19.080;2022-07-29T05:01:28;6.03;;;2.55;;
63653;SDS011;49809;47.418;19.080;2022-07-29T05:04:31;2.50;;;2.20;;
63653;SDS011;49809;47.418;19.080;2022-07-29T05:07:38;3.62;;;2.15;;
63653;SDS011;49809;47.418;19.080;2022-07-29T05:10:41;3.92;;;2.53;;
63653;SDS011;49809;47.418;19.080;2022-07-29T05:13:46;2.50;;;2.05;;
63653;SDS011;49809;47.418;19.080;2022-07-29T05:16:52;2.77;;;2.40;;
63653;SDS011;49809;47.418;19.080;2022-07-29T05:19:58;3.22;;;2.60;;
63653;SDS011;49809;47.418;19.080;2022-07-29T05:23:03;3.95;;;2.50;;
63653;SDS011;49809;47.418;19.080;2022-07-29T05:26:06;3.40;;;2.30;;
63653;SDS011;49809;47.418;19.080;2022-07-29T05:29:09;4.62;;;2.53;;
63653;SDS011;49809;47.418;19.080;2022-07-29T05:32:32;3.37;;;2.33;;
63653;SDS011;49809;47.418;19.080;2022-07-29T05:35:35;4.18;;;2.47;;
63653;SDS011;49809;47.418;19.080;2022-07-29T05:38:41;3.40;;;2.60;;
63653;SDS011;49809;47.418;19.080;2022-07-29T05:42:00;4.05;;;2.50;;
63653;SDS011;49809;47.418;19.080;2022-07-29T05:45:04;3.72;;;2.60;;
63653;SDS011;49809;47.418;19.080;2022-07-29T05:48:07;2.50;;;2.30;;
63653;SDS011;49809;47.418;19.080;2022-07-29T05:51:11;2.92;;;2.28;;
63653;SDS011;49809;47.418;19.080;2022-07-29T05:54:21;4.35;;;2.62;;
63653;SDS011;49809;47.418;19.080;2022-07-29T05:57:25;3.85;;;2.65;;
63653;SDS011;49809;47.418;19.080;2022-07-29T06:00:28;4.75;;;2.58;;
63653;SDS011;49809;47.418;19.080;2022-07-29T06:03:31;2.87;;;2.33;;
63653;SDS011;49809;47.418;19.080;2022-07-29T06:06:34;4.53;;;2.50;;
63653;SDS011;49809;47.418;19.080;2022-07-29T06:09:37;2.75;;;2.50;;
63653;SDS011;49809;47.418;19.080;2022-07-29T06:12:40;2.97;;;2.25;;
63653;SDS011;49809;47.418;19.080;2022-07-29T06:15:50;3.58;;;2.53;;
63653;SDS011;49809;47.418;19.080;2022-07-29T06:18:53;3.10;;;2.12;;
63653;SDS011;49809;47.418;19.080;2022-07-29T06:21:56;3.15;;;2.50;;
63653;SDS011;49809;47.418;19.080;2022-07-29T06:25:00;2.30;;;2.08;;
63653;SDS011;49809;47.418;19.080;2022-07-29T06:28:09;4.68;;;2.40;;
63653;SDS011;49809;47.418;19.080;2022-07-29T06:31:17;3.40;;;2.50;;
63653;SDS011;49809;47.418;19.080;2022-07-29T06:34:20;3.47;;;2.30;;
63653;SDS011;49809;47.418;19.080;2022-07-29T06:37:24;3.87;;;2.60;;
63653;SDS011;49809;47.418;19.080;2022-07-29T06:40:31;5.60;;;2.60;;
63653;SDS011;49809;47.418;19.080;2022-07-29T06:43:56;3.40;;;2.35;;
63653;SDS011;49809;47.418;19.080;2022-07-29T06:47:13;3.22;;;2.87;;
63653;SDS011;49809;47.418;19.080;2022-07-29T06:50:16;3.62;;;2.58;;
63653;SDS011;49809;47.418;19.080;2022-07-29T06:53:22;4.15;;;2.80;;
63653;SDS011;49809;47.418;19.080;2022-07-29T06:56:26;3.47;;;2.90;;
63653;SDS011;49809;47.418;19.080;2022-07-29T07:00:01;4.03;;;2.90;;
63653;SDS011;49809;47.418;19.080;2022-07-29T07:03:07;4.15;;;2.67;;
63653;SDS011;49809;47.418;19.080;2022-07-29T07:06:10;3.95;;;2.92;;
63653;SDS011;49809;47.418;19.080;2022-07-29T07:09:16;4.93;;;3.00;;
63653;SDS011;49809;47.418;19.080;2022-07-29T07:12:19;3.00;;;2.70;;
63653;SDS011;49809;47.418;19.080;2022-07-29T07:15:24;4.32;;;3.30;;
63653;SDS011;49809;47.418;19.080;2022-07-29T07:18:44;4.07;;;3.05;;
63653;SDS011;49809;47.418;19.080;2022-07-29T07:21:47;2.92;;;2.60;;
63653;SDS011;49809;47.418;19.080;2022-07-29T07:24:55;5.03;;;2.78;;
63653;SDS011;49809;47.418;19.080;2022-07-29T07:28:40;4.07;;;3.28;;
63653;SDS011;49809;47.418;19.080;2022-07-29T07:32:21;3.60;;;2.70;;
63653;SDS011;49809;47.418;19.080;2022-07-29T07:35:49;5.62;;;3.20;;
63653;SDS011;49809;47.418;19.080;2022-07-29T07:39:28;3.90;;;2.85;;
63653;SDS011;49809;47.418;19.080;2022-07-29T07:42:58;5.70;;;2.90;;
63653;SDS011;49809;47.418;19.080;2022-07-29T07:46:41;4.95;;;2.67;;
63653;SDS011;49809;47.418;19.080;2022-07-29T07:49:57;4.55;;;3.30;;
63653;SDS011;49809;47.418;19.080;2022-07-29T07:57:30;3.12;;;2.83;;
63653;SDS011;49809;47.418;19.080;2022-07-29T08:00:44;3.08;;;2.78;;
63653;SDS011;49809;47.418;19.080;2022-07-29T08:04:16;3.67;;;2.80;;
63653;SDS011;49809;47.418;19.080;2022-07-29T08:07:41;3.23;;;2.67;;
63653;SDS011;49809;47.418;19.080;2022-07-29T08:11:14;2.90;;;2.60;;
63653;SDS011;49809;47.418;19.080;2022-07-29T08:14:43;4.15;;;2.53;;
63653;SDS011;49809;47.418;19.080;2022-07-29T08:18:13;3.92;;;2.70;;
63653;SDS011;49809;47.418;19.080;2022-07-29T08:21:38;3.15;;;2.62;;
63653;SDS011;49809;47.418;19.080;2022-07-29T08:25:16;4.68;;;2.90;;
63653;SDS011;49809;47.418;19.080;2022-07-29T08:28:39;3.53;;;2.97;;
63653;SDS011;49809;47.418;19.080;2022-07-29T08:32:17;3.17;;;2.50;;
63653;SDS011;49809;47.418;19.080;2022-07-29T08:35:54;3.00;;;2.70;;
63653;SDS011;49809;47.418;19.080;2022-07-29T08:43:11;3.15;;;2.70;;
63653;SDS011;49809;47.418;19.080;2022-07-29T08:54:58;6.22;;;2.50;;
63653;SDS011;49809;47.418;19.080;2022-07-29T09:12:37;3.20;;;2.50;;
63653;SDS011;49809;47.418;19.080;2022-07-29T09:54:11;4.05;;;2.12;;
63653;SDS011;49809;47.418;19.080;2022-07-29T09:58:21;1.80;;;1.70;;
63653;SDS011;49809;47.418;19.080;2022-07-29T10:02:00;1.87;;;1.77;;
63653;SDS011;49809;47.418;19.080;2022-07-29T10:05:38;3.08;;;2.00;;
63653;SDS011;49809;47.418;19.080;2022-07-29T10:09:09;2.28;;;1.65;;
63653;SDS011;49809;47.418;19.080;2022-07-29T10:12:48;3.22;;;2.08;;
63653;SDS011;49809;47.418;19.080;2022-07-29T10:16:29;1.73;;;1.62;;
63653;SDS011;49809;47.418;19.080;2022-07-29T10:19:58;2.17;;;1.80;;
63653;SDS011;49809;47.418;19.080;2022-07-29T10:23:36;2.28;;;1.85;;
63653;SDS011;49809;47.418;19.080;2022-07-29T10:27:03;1.87;;;1.73;;
63653;SDS011;49809;47.418;19.080;2022-07-29T10:30:38;2.75;;;1.95;;
63653;SDS011;49809;47.418;19.080;2022-07-29T10:34:44;2.72;;;2.00;;
63653;SDS011;49809;47.418;19.080;2022-07-29T10:38:27;2.55;;;1.60;;
63653;SDS011;49809;47.418;19.080;2022-07-29T10:42:18;1.60;;;1.50;;
63653;SDS011;49809;47.418;19.080;2022-07-29T10:45:51;1.80;;;1.70;;
63653;SDS011;49809;47.418;19.080;2022-07-29T10:49:26;2.10;;;1.83;;
63653;SDS011;49809;47.418;19.080;2022-07-29T10:52:52;2.17;;;1.70;;
63653;SDS011;49809;47.418;19.080;2022-07-29T10:56:27;1.80;;;1.70;;
63653;SDS011;49809;47.418;19.080;2022-07-29T11:03:44;1.80;;;1.70;;
63653;SDS011;49809;47.418;19.080;2022-07-29T11:11:48;1.70;;;1.60;;
63653;SDS011;49809;47.418;19.080;2022-07-29T11:15:21;1.65;;;1.55;;
63653;SDS011;49809;47.418;19.080;2022-07-29T11:30:12;1.80;;;1.70;;
63653;SDS011;49809;47.418;19.080;2022-07-29T11:33:50;1.87;;;1.77;;
63653;SDS011;49809;47.418;19.080;2022-07-29T11:37:30;1.98;;;1.77;;
63653;SDS011;49809;47.418;19.080;2022-07-29T11:45:02;2.20;;;2.00;;
63653;SDS011;49809;47.418;19.080;2022-07-29T11:48:30;1.80;;;1.70;;
63653;SDS011;49809;47.418;19.080;2022-07-29T11:52:08;1.92;;;1.83;;
63653;SDS011;49809;47.418;19.080;2022-07-29T11:55:38;1.90;;;1.80;;
63653;SDS011;49809;47.418;19.080;2022-07-29T11:59:12;1.80;;;1.70;;
63653;SDS011;49809;47.418;19.080;2022-07-29T12:02:40;3.17;;;1.95;;
63653;SDS011;49809;47.418;19.080;2022-07-29T12:06:20;2.50;;;2.00;;
63653;SDS011;49809;47.418;19.080;2022-07-29T12:13:42;1.90;;;1.75;;
63653;SDS011;49809;47.418;19.080;2022-07-29T12:17:27;3.75;;;1.65;;
63653;SDS011;49809;47.418;19.080;2022-07-29T12:21:09;1.90;;;1.67;;
63653;SDS011;49809;47.418;19.080;2022-07-29T12:28:26;2.00;;;1.80;;
63653;SDS011;49809;47.418;19.080;2022-07-29T12:31:51;2.60;;;2.10;;
63653;SDS011;49809;47.418;19.080;2022-07-29T12:35:33;3.35;;;2.12;;
63653;SDS011;49809;47.418;19.080;2022-07-29T12:38:58;3.57;;;2.03;;
63653;SDS011;49809;47.418;19.080;2022-07-29T12:42:33;2.12;;;1.92;;
63653;SDS011;49809;47.418;19.080;2022-07-29T12:46:15;2.25;;;2.05;;
63653;SDS011;49809;47.418;19.080;2022-07-29T12:49:31;2.47;;;1.90;;
63653;SDS011;49809;47.418;19.080;2022-07-29T12:53:09;2.20;;;2.00;;
63653;SDS011;49809;47.418;19.080;2022-07-29T12:56:26;4.55;;;1.80;;
63653;SDS011;49809;47.418;19.080;2022-07-29T13:00:03;2.00;;;1.80;;
63653;SDS011;49809;47.418;19.080;2022-07-29T13:03:28;2.37;;;2.00;;
63653;SDS011;49809;47.418;19.080;2022-07-29T13:07:03;2.30;;;1.80;;
63653;SDS011;49809;47.418;19.080;2022-07-29T13:10:34;1.87;;;1.60;;
63653;SDS011;49809;47.418;19.080;2022-07-29T13:13:57;1.90;;;1.70;;
63653;SDS011;49809;47.418;19.080;2022-07-29T13:17:26;4.55;;;2.00;;
63653;SDS011;49809;47.418;19.080;2022-07-29T13:24:44;3.20;;;2.08;;
63653;SDS011;49809;47.418;19.080;2022-07-29T13:32:02;1.90;;;1.70;;
63653;SDS011;49809;47.418;19.080;2022-07-29T13:35:33;2.05;;;1.85;;
63653;SDS011;49809;47.418;19.080;2022-07-29T13:38:59;2.05;;;1.85;;
63653;SDS011;49809;47.418;19.080;2022-07-29T13:42:41;2.90;;;2.10;;
63653;SDS011;49809;47.418;19.080;2022-07-29T13:46:12;4.07;;;2.00;;
63653;SDS011;49809;47.418;19.080;2022-07-29T13:49:49;2.30;;;1.90;;
63653;SDS011;49809;47.418;19.080;2022-07-29T13:53:30;1.83;;;1.65;;
63653;SDS011;49809;47.418;19.080;2022-07-29T13:57:08;1.80;;;1.70;;
63653;SDS011;49809;47.418;19.080;2022-07-29T14:00:50;2.12;;;1.90;;
63653;SDS011;49809;47.418;19.080;2022-07-29T14:04:19;1.87;;;1.73;;
63653;SDS011;49809;47.418;19.080;2022-07-29T14:07:50;2.75;;;1.90;;
63653;SDS011;49809;47.418;19.080;2022-07-29T14:11:32;2.33;;;2.12;;
63653;SDS011;49809;47.418;19.080;2022-07-29T14:14:59;2.12;;;1.70;;
63653;SDS011;49809;47.418;19.080;2022-07-29T14:18:41;2.22;;;1.83;;
63653;SDS011;49809;47.418;19.080;2022-07-29T14:22:08;2.25;;;1.90;;
63653;SDS011;49809;47.418;19.080;2022-07-29T14:25:46;2.15;;;1.95;;
63653;SDS011;49809;47.418;19.080;2022-07-29T14:29:15;1.77;;;1.67;;
63653;SDS011;49809;47.418;19.080;2022-07-29T14:32:54;1.95;;;1.62;;
63653;SDS011;49809;47.418;19.080;2022-07-29T14:36:31;2.10;;;1.90;;
63653;SDS011;49809;47.418;19.080;2022-07-29T14:40:16;2.30;;;2.00;;
63653;SDS011;49809;47.418;19.080;2022-07-29T14:47:32;2.45;;;1.70;;
63653;SDS011;49809;47.418;19.080;2022-07-29T14:51:02;1.95;;;1.85;;
63653;SDS011;49809;47.418;19.080;2022-07-29T14:54:41;2.30;;;2.10;;
63653;SDS011;49809;47.418;19.080;2022-07-29T14:58:10;3.65;;;2.00;;
63653;SDS011;49809;47.418;19.080;2022-07-29T15:01:52;2.30;;;1.92;;
63653;SDS011;49809;47.418;19.080;2022-07-29T15:05:20;2.35;;;1.90;;
63653;SDS011;49809;47.418;19.080;2022-07-29T15:08:59;2.15;;;1.95;;
63653;SDS011;49809;47.418;19.080;2022-07-29T15:12:27;2.12;;;1.92;;
63653;SDS011;49809;47.418;19.080;2022-07-29T15:15:57;2.35;;;1.83;;
63653;SDS011;49809;47.418;19.080;2022-07-29T15:19:22;2.17;;;1.77;;
63653;SDS011;49809;47.418;19.080;2022-07-29T15:22:57;2.53;;;2.00;;
63653;SDS011;49809;47.418;19.080;2022-07-29T15:26:29;1.92;;;1.83;;
63653;SDS011;49809;47.418;19.080;2022-07-29T15:30:07;2.15;;;1.95;;
63653;SDS011;49809;47.418;19.080;2022-07-29T15:33:34;2.22;;;1.95;;
63653;SDS011;49809;47.418;19.080;2022-07-29T15:37:12;2.10;;;1.90;;
63653;SDS011;49809;47.418;19.080;2022-07-29T15:40:45;2.50;;;2.17;;
63653;SDS011;49809;47.418;19.080;2022-07-29T15:44:20;7.65;;;2.03;;
63653;SDS011;49809;47.418;19.080;2022-07-29T15:47:47;1.95;;;1.85;;
63653;SDS011;49809;47.418;19.080;2022-07-29T15:51:27;2.20;;;1.80;;
63653;SDS011;49809;47.418;19.080;2022-07-29T15:54:55;2.85;;;2.00;;
63653;SDS011;49809;47.418;19.080;2022-07-29T15:58:39;2.10;;;1.90;;
63653;SDS011;49809;47.418;19.080;2022-07-29T16:02:07;2.33;;;1.95;;
63653;SDS011;49809;47.418;19.080;2022-07-29T16:05:51;2.10;;;1.90;;
63653;SDS011;49809;47.418;19.080;2022-07-29T16:09:19;2.33;;;2.00;;
63653;SDS011;49809;47.418;19.080;2022-07-29T16:13:03;3.15;;;2.10;;
63653;SDS011;49809;47.418;19.080;2022-07-29T16:16:33;2.00;;;1.80;;
63653;SDS011;49809;47.418;19.080;2022-07-29T16:20:05;1.80;;;1.70;;
63653;SDS011;49809;47.418;19.080;2022-07-29T16:23:43;2.35;;;2.12;;
63653;SDS011;49809;47.418;19.080;2022-07-29T16:27:15;2.33;;;1.98;;
63653;SDS011;49809;47.418;19.080;2022-07-29T16:30:46;4.37;;;2.10;;
63653;SDS011;49809;47.418;19.080;2022-07-29T16:34:23;2.62;;;1.95;;
63653;SDS011;49809;47.418;19.080;2022-07-29T16:37:52;2.00;;;1.83;;
63653;SDS011;49809;47.418;19.080;2022-07-29T16:41:25;1.80;;;1.70;;
63653;SDS011;49809;47.418;19.080;2022-07-29T16:48:42;4.62;;;3.33;;
63653;SDS011;49809;47.418;19.080;2022-07-29T16:52:11;2.10;;;1.90;;
63653;SDS011;49809;47.418;19.080;2022-07-29T16:55:38;4.60;;;3.30;;
63653;SDS011;49809;47.418;19.080;2022-07-29T16:59:17;2.60;;;2.40;;
63653;SDS011;49809;47.418;19.080;2022-07-29T17:02:59;2.33;;;2.03;;
63653;SDS011;49809;47.418;19.080;2022-07-29T17:10:14;2.60;;;2.40;;
63653;SDS011;49809;47.418;19.080;2022-07-29T17:13:52;2.12;;;1.73;;
63653;SDS011;49809;47.418;19.080;2022-07-29T17:21:25;3.65;;;2.03;;
63653;SDS011;49809;47.418;19.080;2022-07-29T17:24:58;2.75;;;2.20;;
63653;SDS011;49809;47.418;19.080;2022-07-29T17:28:45;2.35;;;2.10;;
63653;SDS011;49809;47.418;19.080;2022-07-29T17:32:12;2.37;;;2.10;;
63653;SDS011;49809;47.418;19.080;2022-07-29T17:39:33;4.90;;;2.17;;
63653;SDS011;49809;47.418;19.080;2022-07-29T17:43:11;2.67;;;2.10;;
63653;SDS011;49809;47.418;19.080;2022-07-29T17:46:39;3.37;;;2.05;;
63653;SDS011;49809;47.418;19.080;2022-07-29T17:50:20;2.55;;;2.35;;
63653;SDS011;49809;47.418;19.080;2022-07-29T17:53:47;3.15;;;2.50;;
63653;SDS011;49809;47.418;19.080;2022-07-29T17:57:29;3.47;;;2.00;;
63653;SDS011;49809;47.418;19.080;2022-07-29T18:00:57;4.35;;;2.60;;
63653;SDS011;49809;47.418;19.080;2022-07-29T18:04:36;3.33;;;2.62;;
63653;SDS011;49809;47.418;19.080;2022-07-29T18:08:05;4.93;;;2.78;;
63653;SDS011;49809;47.418;19.080;2022-07-29T18:11:43;3.47;;;2.33;;
63653;SDS011;49809;47.418;19.080;2022-07-29T18:15:09;2.47;;;2.28;;
63653;SDS011;49809;47.418;19.080;2022-07-29T18:18:47;3.03;;;2.40;;
63653;SDS011;49809;47.418;19.080;2022-07-29T18:22:23;6.28;;;2.90;;
63653;SDS011;49809;47.418;19.080;2022-07-29T18:26:02;3.10;;;2.30;;
63653;SDS011;49809;47.418;19.080;2022-07-29T18:29:32;4.55;;;2.67;;
63653;SDS011;49809;47.418;19.080;2022-07-29T18:33:12;5.85;;;3.05;;
63653;SDS011;49809;47.418;19.080;2022-07-29T18:36:43;4.35;;;2.80;;
63653;SDS011;49809;47.418;19.080;2022-07-29T18:40:23;12.37;;;4.72;;
63653;SDS011;49809;47.418;19.080;2022-07-29T18:43:49;8.85;;;4.10;;
63653;SDS011;49809;47.418;19.080;2022-07-29T18:47:26;12.55;;;3.95;;
63653;SDS011;49809;47.418;19.080;2022-07-29T18:51:02;6.47;;;3.30;;
63653;SDS011;49809;47.418;19.080;2022-07-29T18:54:41;5.15;;;3.37;;
63653;SDS011;49809;47.418;19.080;2022-07-29T18:58:12;8.18;;;3.15;;
63653;SDS011;49809;47.418;19.080;2022-07-29T19:02:04;4.00;;;3.17;;
63653;SDS011;49809;47.418;19.080;2022-07-29T19:05:41;3.72;;;2.47;;
63653;SDS011;49809;47.418;19.080;2022-07-29T19:09:12;4.50;;;3.17;;
63653;SDS011;49809;47.418;19.080;2022-07-29T19:12:52;4.35;;;2.92;;
63653;SDS011;49809;47.418;19.080;2022-07-29T19:16:25;8.77;;;3.47;;
63653;SDS011;49809;47.418;19.080;2022-07-29T19:20:06;5.45;;;3.92;;
63653;SDS011;49809;47.418;19.080;2022-07-29T19:23:33;7.47;;;4.50;;
63653;SDS011;49809;47.418;19.080;2022-07-29T19:27:11;5.93;;;3.22;;
63653;SDS011;49809;47.418;19.080;2022-07-29T19:30:40;4.80;;;3.17;;
63653;SDS011;49809;47.418;19.080;2022-07-29T19:34:30;3.28;;;1.95;;
63653;SDS011;49809;47.418;19.080;2022-07-29T19:37:59;3.45;;;2.10;;
63653;SDS011;49809;47.418;19.080;2022-07-29T19:41:41;2.53;;;1.65;;
63653;SDS011;49809;47.418;19.080;2022-07-29T19:45:07;2.53;;;2.10;;
63653;SDS011;49809;47.418;19.080;2022-07-29T19:48:38;2.65;;;2.28;;
63653;SDS011;49809;47.418;19.080;2022-07-29T19:52:03;3.70;;;2.30;;
63653;SDS011;49809;47.418;19.080;2022-07-29T19:55:44;3.20;;;2.17;;
63653;SDS011;49809;47.418;19.080;2022-07-29T19:59:02;3.10;;;1.95;;
63653;SDS011;49809;47.418;19.080;2022-07-29T20:02:30;2.87;;;2.10;;
63653;SDS011;49809;47.418;19.080;2022-07-29T20:06:02;2.33;;;1.90;;
63653;SDS011;49809;47.418;19.080;2022-07-29T20:09:20;2.33;;;1.92;;
63653;SDS011;49809;47.418;19.080;2022-07-29T20:12:45;5.75;;;2.20;;
63653;SDS011;49809;47.418;19.080;2022-07-29T20:16:16;2.50;;;2.22;;
63653;SDS011;49809;47.418;19.080;2022-07-29T20:19:34;2.17;;;1.98;;
63653;SDS011;49809;47.418;19.080;2022-07-29T20:23:05;2.22;;;2.00;;
63653;SDS011;49809;47.418;19.080;2022-07-29T20:26:33;2.83;;;2.15;;
63653;SDS011;49809;47.418;19.080;2022-07-29T20:30:13;2.22;;;1.90;;
63653;SDS011;49809;47.418;19.080;2022-07-29T20:33:38;2.85;;;2.10;;
63653;SDS011;49809;47.418;19.080;2022-07-29T20:37:25;2.85;;;1.98;;
63653;SDS011;49809;47.418;19.080;2022-07-29T20:40:52;2.40;;;2.20;;
63653;SDS011;49809;47.418;19.080;2022-07-29T20:44:34;2.33;;;2.12;;
63653;SDS011;49809;47.418;19.080;2022-07-29T20:48:00;2.83;;;2.60;;
63653;SDS011;49809;47.418;19.080;2022-07-29T20:51:35;2.22;;;2.03;;
63653;SDS011;49809;47.418;19.080;2022-07-29T20:55:09;3.55;;;2.03;;
63653;SDS011;49809;47.418;19.080;2022-07-29T20:58:48;2.15;;;1.95;;
63653;SDS011;49809;47.418;19.080;2022-07-29T21:02:16;7.57;;;2.60;;
63653;SDS011;49809;47.418;19.080;2022-07-29T21:05:53;2.40;;;2.12;;
63653;SDS011;49809;47.418;19.080;2022-07-29T21:09:20;3.28;;;2.22;;
63653;SDS011;49809;47.418;19.080;2022-07-29T21:12:58;3.87;;;2.28;;
63653;SDS011;49809;47.418;19.080;2022-07-29T21:16:23;3.53;;;2.10;;
63653;SDS011;49809;47.418;19.080;2022-07-29T21:20:07;3.85;;;2.30;;
63653;SDS011;49809;47.418;19.080;2022-07-29T21:23:41;2.90;;;2.50;;
63653;SDS011;49809;47.418;19.080;2022-07-29T21:27:12;5.62;;;2.30;;
63653;SDS011;49809;47.418;19.080;2022-07-29T21:30:58;4.78;;;2.40;;
63653;SDS011;49809;47.418;19.080;2022-07-29T21:34:38;3.00;;;2.50;;
63653;SDS011;49809;47.418;19.080;2022-07-29T21:38:11;3.37;;;2.65;;
63653;SDS011;49809;47.418;19.080;2022-07-29T21:41:54;3.33;;;2.28;;
63653;SDS011;49809;47.418;19.080;2022-07-29T21:45:22;3.42;;;2.30;;
63653;SDS011;49809;47.418;19.080;2022-07-29T21:49:02;2.53;;;2.33;;
63653;SDS011;49809;47.418;19.080;2022-07-29T21:52:31;3.75;;;2.35;;
63653;SDS011;49809;47.418;19.080;2022-07-29T21:56:00;2.78;;;2.47;;
63653;SDS011;49809;47.418;19.080;2022-07-29T21:59:26;2.67;;;2.20;;
63653;SDS011;49809;47.418;19.080;2022-07-29T22:03:03;3.70;;;2.50;;
63653;SDS011;49809;47.418;19.080;2022-07-29T22:06:44;3.47;;;2.33;;
63653;SDS011;49809;47.418;19.080;2022-07-29T22:10:12;3.12;;;2.37;;
63653;SDS011;49809;47.418;19.080;2022-07-29T22:13:57;3.58;;;2.35;;
63653;SDS011;49809;47.418;19.080;2022-07-29T22:17:25;2.75;;;2.20;;
63653;SDS011;49809;47.418;19.080;2022-07-29T22:21:02;5.07;;;2.12;;
63653;SDS011;49809;47.418;19.080;2022-07-29T22:24:28;4.78;;;2.53;;
63653;SDS011;49809;47.418;19.080;2022-07-29T22:28:08;4.22;;;2.55;;
63653;SDS011;49809;47.418;19.080;2022-07-29T22:31:35;2.28;;;2.05;;
63653;SDS011;49809;47.418;19.080;2022-07-29T22:35:13;2.33;;;2.10;;